sensor_id;sensor_type;location;lat;lon;timestamp;temperature;humidity
66610;DHT22;53468;48.276;14.416;2022-08-11T00:01:33;15.30;99.90
66610;DHT22;53468;48.276;14.416;2022-08-11T00:07:06;15.30;99.90
66610;DHT22;53468;48.276;14.416;2022-08-11T00:12:41;15.30;99.90
66610;DHT22;53468;48.276;14.416;2022-08-11T00:18:14;15.20;99.90
66610;DHT22;53468;48.276;14.416;2022-08-11T00:23:54;15.20;99.90
66610;DHT22;53468;48.276;14.416;2022-08-11T00:29:29;15.20;99.90
66610;DHT22;53468;48.276;14.416;2022-08-11T00:35:02;15.20;99.90
66610;DHT22;53468;48.276;14.416;2022-08-11T00:40:40;15.10;99.90
66610;DHT22;53468;48.276;14.416;2022-08-11T00:46:24;15.10;99.90
66610;DHT22;53468;48.276;14.416;2022-08-11T00:52:09;15.10;99.90
66610;DHT22;53468;48.276;14.416;2022-08-11T00:58:25;15.10;99.90
66610;DHT22;53468;48.276;14.416;2022-08-11T01:04:22;15.00;99.90
66610;DHT22;53468;48.276;14.416;2022-08-11T01:10:13;15.00;99.90
66610;DHT22;53468;48.276;14.416;2022-08-11T01:16:10;14.90;99.90
66610;DHT22;53468;48.276;14.416;2022-08-11T01:22:14;15.00;99.90
66610;DHT22;53468;48.276;14.416;2022-08-11T01:28:26;14.90;99.90
66610;DHT22;53468;48.276;14.416;2022-08-11T01:40:42;14.80;99.90
66610;DHT22;53468;48.276;14.416;2022-08-11T01:46:22;14.80;99.90
66610;DHT22;53468;48.276;14.416;2022-08-11T01:52:12;14.70;99.90
66610;DHT22;53468;48.276;14.416;2022-08-11T01:57:55;14.70;99.90
66610;DHT22;53468;48.276;14.416;2022-08-11T02:03:38;14.70;99.90
66610;DHT22;53468;48.276;14.416;2022-08-11T02:09:24;14.70;99.90
66610;DHT22;53468;48.276;14.416;2022-08-11T02:15:09;14.70;99.90
66610;DHT22;53468;48.276;14.416;2022-08-11T02:20:49;14.70;99.90
66610;DHT22;53468;48.276;14.416;2022-08-11T02:26:43;14.60;99.90
66610;DHT22;53468;48.276;14.416;2022-08-11T02:32:24;14.60;99.90
66610;DHT22;53468;48.276;14.416;2022-08-11T02:38:22;14.60;99.90
66610;DHT22;53468;48.276;14.416;2022-08-11T02:44:15;14.60;99.90
66610;DHT22;53468;48.276;14.416;2022-08-11T02:49:59;14.50;99.90
66610;DHT22;53468;48.276;14.416;2022-08-11T02:55:43;14.50;99.90
66610;DHT22;53468;48.276;14.416;2022-08-11T03:01:26;14.50;99.90
66610;DHT22;53468;48.276;14.416;2022-08-11T03:07:12;14.50;99.90
66610;DHT22;53468;48.276;14.416;2022-08-11T03:12:56;14.50;99.90
66610;DHT22;53468;48.276;14.416;2022-08-11T03:19:07;14.50;99.90
66610;DHT22;53468;48.276;14.416;2022-08-11T03:24:56;14.30;99.90
66610;DHT22;53468;48.276;14.416;2022-08-11T03:30:38;14.30;99.90
66610;DHT22;53468;48.276;14.416;2022-08-11T03:36:21;14.30;99.90
66610;DHT22;53468;48.276;14.416;2022-08-11T03:42:16;14.20;99.90
66610;DHT22;53468;48.276;14.416;2022-08-11T03:48:15;14.20;99.90
66610;DHT22;53468;48.276;14.416;2022-08-11T03:54:06;14.10;99.90
66610;DHT22;53468;48.276;14.416;2022-08-11T04:12:28;14.20;99.90
66610;DHT22;53468;48.276;14.416;2022-08-11T04:18:19;14.10;99.90
66610;DHT22;53468;48.276;14.416;2022-08-11T04:24:30;14.10;99.90
66610;DHT22;53468;48.276;14.416;2022-08-11T04:30:08;14.20;99.90
66610;DHT22;53468;48.276;14.416;2022-08-11T04:35:54;14.20;99.90
66610;DHT22;53468;48.276;14.416;2022-08-11T04:41:52;14.20;99.90
66610;DHT22;53468;48.276;14.416;2022-08-11T04:47:52;14.20;99.90
66610;DHT22;53468;48.276;14.416;2022-08-11T04:53:56;14.20;99.90
66610;DHT22;53468;48.276;14.416;2022-08-11T05:00:06;14.30;99.90
66610;DHT22;53468;48.276;14.416;2022-08-11T05:06:38;14.40;99.90
66610;DHT22;53468;48.276;14.416;2022-08-11T05:12:27;14.50;99.90
66610;DHT22;53468;48.276;14.416;2022-08-11T05:18:08;14.70;99.90
66610;DHT22;53468;48.276;14.416;2022-08-11T05:50:10;15.40;99.90
66610;DHT22;53468;48.276;14.416;2022-08-11T05:56:04;15.50;99.90
66610;DHT22;53468;48.276;14.416;2022-08-11T06:01:51;15.60;99.90
66610;DHT22;53468;48.276;14.416;2022-08-11T06:07:29;15.80;99.90
66610;DHT22;53468;48.276;14.416;2022-08-11T06:13:04;16.00;99.90
66610;DHT22;53468;48.276;14.416;2022-08-11T06:18:37;16.20;99.90
66610;DHT22;53468;48.276;14.416;2022-08-11T06:24:12;16.40;99.90
66610;DHT22;53468;48.276;14.416;2022-08-11T06:29:49;16.60;99.90
66610;DHT22;53468;48.276;14.416;2022-08-11T06:35:24;16.80;99.90
66610;DHT22;53468;48.276;14.416;2022-08-11T06:41:03;17.10;99.90
66610;DHT22;53468;48.276;14.416;2022-08-11T06:46:55;17.30;99.90
66610;DHT22;53468;48.276;14.416;2022-08-11T06:52:36;17.50;99.90
66610;DHT22;53468;48.276;14.416;2022-08-11T06:58:16;17.80;99.90
66610;DHT22;53468;48.276;14.416;2022-08-11T07:04:08;18.60;99.90
66610;DHT22;53468;48.276;14.416;2022-08-11T07:10:02;19.80;99.90
66610;DHT22;53468;48.276;14.416;2022-08-11T07:15:57;21.10;99.90
66610;DHT22;53468;48.276;14.416;2022-08-11T07:21:31;22.10;99.90
66610;DHT22;53468;48.276;14.416;2022-08-11T07:27:25;23.00;98.40
66610;DHT22;53468;48.276;14.416;2022-08-11T07:33:24;23.70;96.20
66610;DHT22;53468;48.276;14.416;2022-08-11T07:38:57;24.20;94.30
66610;DHT22;53468;48.276;14.416;2022-08-11T07:44:31;24.40;94.30
66610;DHT22;53468;48.276;14.416;2022-08-11T07:50:25;24.70;92.90
66610;DHT22;53468;48.276;14.416;2022-08-11T07:56:15;25.10;93.00
66610;DHT22;53468;48.276;14.416;2022-08-11T08:01:49;25.50;91.60
66610;DHT22;53468;48.276;14.416;2022-08-11T08:07:40;26.00;92.00
66610;DHT22;53468;48.276;14.416;2022-08-11T08:13:31;25.90;84.30
66610;DHT22;53468;48.276;14.416;2022-08-11T08:19:21;26.20;83.70
66610;DHT22;53468;48.276;14.416;2022-08-11T08:24:56;26.30;85.40
66610;DHT22;53468;48.276;14.416;2022-08-11T08:30:28;26.60;87.30
66610;DHT22;53468;48.276;14.416;2022-08-11T08:36:21;26.60;86.20
66610;DHT22;53468;48.276;14.416;2022-08-11T08:41:56;26.60;85.70
66610;DHT22;53468;48.276;14.416;2022-08-11T08:47:30;26.80;85.10
66610;DHT22;53468;48.276;14.416;2022-08-11T08:53:06;26.70;82.00
66610;DHT22;53468;48.276;14.416;2022-08-11T08:58:42;26.70;84.30
66610;DHT22;53468;48.276;14.416;2022-08-11T09:04:17;26.70;85.70
66610;DHT22;53468;48.276;14.416;2022-08-11T09:09:52;26.70;80.50
66610;DHT22;53468;48.276;14.416;2022-08-11T09:15:26;26.70;85.50
66610;DHT22;53468;48.276;14.416;2022-08-11T09:21:01;26.80;82.00
66610;DHT22;53468;48.276;14.416;2022-08-11T09:26:34;26.80;81.50
66610;DHT22;53468;48.276;14.416;2022-08-11T09:32:27;26.80;79.30
66610;DHT22;53468;48.276;14.416;2022-08-11T09:38:01;26.80;80.40
66610;DHT22;53468;48.276;14.416;2022-08-11T09:43:51;26.80;82.70
66610;DHT22;53468;48.276;14.416;2022-08-11T09:49:42;26.90;82.80
66610;DHT22;53468;48.276;14.416;2022-08-11T09:55:15;27.00;81.30
66610;DHT22;53468;48.276;14.416;2022-08-11T10:00:50;27.10;76.50
66610;DHT22;53468;48.276;14.416;2022-08-11T10:06:24;27.10;81.80
66610;DHT22;53468;48.276;14.416;2022-08-11T10:12:20;27.10;76.50
66610;DHT22;53468;48.276;14.416;2022-08-11T10:17:57;27.10;77.90
66610;DHT22;53468;48.276;14.416;2022-08-11T10:23:51;27.10;77.00
66610;DHT22;53468;48.276;14.416;2022-08-11T10:29:41;27.10;76.40
66610;DHT22;53468;48.276;14.416;2022-08-11T10:35:31;27.20;74.10
66610;DHT22;53468;48.276;14.416;2022-08-11T10:41:05;27.30;78.70
66610;DHT22;53468;48.276;14.416;2022-08-11T10:46:55;27.20;75.80
66610;DHT22;53468;48.276;14.416;2022-08-11T10:52:47;27.20;71.90
66610;DHT22;53468;48.276;14.416;2022-08-11T10:58:39;27.10;71.40
66610;DHT22;53468;48.276;14.416;2022-08-11T11:04:25;27.10;70.30
66610;DHT22;53468;48.276;14.416;2022-08-11T11:10:03;27.00;71.60
66610;DHT22;53468;48.276;14.416;2022-08-11T11:15:39;27.10;64.90
66610;DHT22;53468;48.276;14.416;2022-08-11T11:21:29;27.00;69.80
66610;DHT22;53468;48.276;14.416;2022-08-11T11:27:09;26.90;69.30
66610;DHT22;53468;48.276;14.416;2022-08-11T11:32:57;27.00;67.60
66610;DHT22;53468;48.276;14.416;2022-08-11T11:38:32;26.90;66.20
66610;DHT22;53468;48.276;14.416;2022-08-11T11:44:05;27.00;66.10
66610;DHT22;53468;48.276;14.416;2022-08-11T11:49:40;26.80;60.60
66610;DHT22;53468;48.276;14.416;2022-08-11T11:55:13;26.60;61.40
66610;DHT22;53468;48.276;14.416;2022-08-11T12:00:47;26.80;65.70
66610;DHT22;53468;48.276;14.416;2022-08-11T12:06:39;26.80;65.40
66610;DHT22;53468;48.276;14.416;2022-08-11T12:12:12;26.80;60.90
66610;DHT22;53468;48.276;14.416;2022-08-11T12:18:03;26.80;63.70
66610;DHT22;53468;48.276;14.416;2022-08-11T12:23:38;26.90;60.30
66610;DHT22;53468;48.276;14.416;2022-08-11T12:29:36;26.80;63.30
66610;DHT22;53468;48.276;14.416;2022-08-11T12:35:09;27.10;64.20
66610;DHT22;53468;48.276;14.416;2022-08-11T12:40:43;27.10;67.10
66610;DHT22;53468;48.276;14.416;2022-08-11T12:46:34;27.20;60.80
66610;DHT22;53468;48.276;14.416;2022-08-11T12:52:10;26.90;59.10
66610;DHT22;53468;48.276;14.416;2022-08-11T12:57:47;27.10;62.70
66610;DHT22;53468;48.276;14.416;2022-08-11T13:03:37;27.10;63.60
66610;DHT22;53468;48.276;14.416;2022-08-11T13:09:27;27.10;61.10
66610;DHT22;53468;48.276;14.416;2022-08-11T13:15:03;27.10;62.40
66610;DHT22;53468;48.276;14.416;2022-08-11T13:20:37;27.30;61.60
66610;DHT22;53468;48.276;14.416;2022-08-11T13:26:09;27.30;62.60
66610;DHT22;53468;48.276;14.416;2022-08-11T13:31:46;27.30;58.40
66610;DHT22;53468;48.276;14.416;2022-08-11T13:37:19;27.40;61.80
66610;DHT22;53468;48.276;14.416;2022-08-11T13:42:53;27.60;59.30
66610;DHT22;53468;48.276;14.416;2022-08-11T13:48:31;27.50;56.60
66610;DHT22;53468;48.276;14.416;2022-08-11T13:54:05;27.50;60.20
66610;DHT22;53468;48.276;14.416;2022-08-11T13:59:39;27.60;55.90
66610;DHT22;53468;48.276;14.416;2022-08-11T14:05:14;27.50;56.00
66610;DHT22;53468;48.276;14.416;2022-08-11T14:10:48;27.50;57.50
66610;DHT22;53468;48.276;14.416;2022-08-11T14:16:42;27.50;56.30
66610;DHT22;53468;48.276;14.416;2022-08-11T14:22:17;27.70;61.10
66610;DHT22;53468;48.276;14.416;2022-08-11T14:27:52;27.70;58.60
66610;DHT22;53468;48.276;14.416;2022-08-11T14:33:27;27.80;57.10
66610;DHT22;53468;48.276;14.416;2022-08-11T14:39:04;27.90;59.20
66610;DHT22;53468;48.276;14.416;2022-08-11T14:44:37;27.90;57.70
66610;DHT22;53468;48.276;14.416;2022-08-11T14:50:31;27.90;61.30
66610;DHT22;53468;48.276;14.416;2022-08-11T14:56:05;27.70;56.30
66610;DHT22;53468;48.276;14.416;2022-08-11T15:01:55;27.40;58.90
66610;DHT22;53468;48.276;14.416;2022-08-11T15:07:45;27.10;59.90
66610;DHT22;53468;48.276;14.416;2022-08-11T15:13:19;27.20;59.80
66610;DHT22;53468;48.276;14.416;2022-08-11T15:18:52;27.30;59.40
66610;DHT22;53468;48.276;14.416;2022-08-11T15:24:24;27.40;61.00
66610;DHT22;53468;48.276;14.416;2022-08-11T15:30:00;27.50;60.70
66610;DHT22;53468;48.276;14.416;2022-08-11T15:35:51;27.30;58.80
66610;DHT22;53468;48.276;14.416;2022-08-11T15:41:46;27.20;59.70
66610;DHT22;53468;48.276;14.416;2022-08-11T15:47:43;27.20;60.90
66610;DHT22;53468;48.276;14.416;2022-08-11T15:53:22;27.20;60.80
66610;DHT22;53468;48.276;14.416;2022-08-11T15:58:56;27.00;60.20
66610;DHT22;53468;48.276;14.416;2022-08-11T16:04:49;26.80;60.50
66610;DHT22;53468;48.276;14.416;2022-08-11T16:10:22;26.80;59.60
66610;DHT22;53468;48.276;14.416;2022-08-11T16:15:56;26.70;60.60
66610;DHT22;53468;48.276;14.416;2022-08-11T16:21:50;26.70;60.90
66610;DHT22;53468;48.276;14.416;2022-08-11T16:27:24;26.80;59.50
66610;DHT22;53468;48.276;14.416;2022-08-11T16:32:57;26.90;58.60
66610;DHT22;53468;48.276;14.416;2022-08-11T16:38:36;26.90;62.00
66610;DHT22;53468;48.276;14.416;2022-08-11T16:44:11;26.90;62.20
66610;DHT22;53468;48.276;14.416;2022-08-11T16:50:02;26.70;61.40
66610;DHT22;53468;48.276;14.416;2022-08-11T16:55:37;26.60;62.40
66610;DHT22;53468;48.276;14.416;2022-08-11T17:01:10;26.40;62.40
66610;DHT22;53468;48.276;14.416;2022-08-11T17:06:45;26.10;60.80
66610;DHT22;53468;48.276;14.416;2022-08-11T17:12:38;25.90;61.60
66610;DHT22;53468;48.276;14.416;2022-08-11T17:18:29;25.70;62.90
66610;DHT22;53468;48.276;14.416;2022-08-11T17:24:13;25.40;62.20
66610;DHT22;53468;48.276;14.416;2022-08-11T17:29:51;25.20;63.40
66610;DHT22;53468;48.276;14.416;2022-08-11T17:35:27;24.90;63.50
66610;DHT22;53468;48.276;14.416;2022-08-11T17:41:04;24.70;63.50
66610;DHT22;53468;48.276;14.416;2022-08-11T17:46:56;24.50;65.00
66610;DHT22;53468;48.276;14.416;2022-08-11T17:52:46;24.20;66.60
66610;DHT22;53468;48.276;14.416;2022-08-11T17:58:37;23.80;67.90
66610;DHT22;53468;48.276;14.416;2022-08-11T18:04:29;23.50;70.00
66610;DHT22;53468;48.276;14.416;2022-08-11T18:10:04;23.30;69.80
66610;DHT22;53468;48.276;14.416;2022-08-11T18:15:54;23.10;71.90
66610;DHT22;53468;48.276;14.416;2022-08-11T18:21:46;22.70;71.60
66610;DHT22;53468;48.276;14.416;2022-08-11T18:27:41;22.50;72.70
66610;DHT22;53468;48.276;14.416;2022-08-11T18:33:36;22.30;73.50
66610;DHT22;53468;48.276;14.416;2022-08-11T18:39:32;22.20;75.20
66610;DHT22;53468;48.276;14.416;2022-08-11T18:45:22;21.90;75.20
66610;DHT22;53468;48.276;14.416;2022-08-11T18:51:12;21.50;78.70
66610;DHT22;53468;48.276;14.416;2022-08-11T18:57:07;21.50;79.00
66610;DHT22;53468;48.276;14.416;2022-08-11T19:02:57;21.30;80.40
66610;DHT22;53468;48.276;14.416;2022-08-11T19:08:52;21.10;81.50
66610;DHT22;53468;48.276;14.416;2022-08-11T19:14:45;21.00;80.30
66610;DHT22;53468;48.276;14.416;2022-08-11T19:20:36;20.90;83.50
66610;DHT22;53468;48.276;14.416;2022-08-11T19:26:28;20.70;83.00
66610;DHT22;53468;48.276;14.416;2022-08-11T19:32:20;20.60;82.30
66610;DHT22;53468;48.276;14.416;2022-08-11T19:38:11;20.50;85.70
66610;DHT22;53468;48.276;14.416;2022-08-11T19:44:01;20.10;87.90
66610;DHT22;53468;48.276;14.416;2022-08-11T19:49:54;19.80;89.50
66610;DHT22;53468;48.276;14.416;2022-08-11T19:55:45;19.60;89.90
66610;DHT22;53468;48.276;14.416;2022-08-11T20:01:35;19.50;90.30
66610;DHT22;53468;48.276;14.416;2022-08-11T20:07:26;19.40;92.10
66610;DHT22;53468;48.276;14.416;2022-08-11T20:13:18;19.20;92.20
66610;DHT22;53468;48.276;14.416;2022-08-11T20:19:12;19.10;91.90
66610;DHT22;53468;48.276;14.416;2022-08-11T20:25:05;18.90;92.80
66610;DHT22;53468;48.276;14.416;2022-08-11T20:30:55;18.80;92.70
66610;DHT22;53468;48.276;14.416;2022-08-11T20:36:45;18.70;94.30
66610;DHT22;53468;48.276;14.416;2022-08-11T20:42:40;18.70;93.20
66610;DHT22;53468;48.276;14.416;2022-08-11T20:48:30;18.60;91.90
66610;DHT22;53468;48.276;14.416;2022-08-11T20:54:22;18.60;92.80
66610;DHT22;53468;48.276;14.416;2022-08-11T21:00:17;18.40;92.90
66610;DHT22;53468;48.276;14.416;2022-08-11T21:06:07;18.30;94.10
66610;DHT22;53468;48.276;14.416;2022-08-11T21:11:59;18.00;94.50
66610;DHT22;53468;48.276;14.416;2022-08-11T21:17:56;17.80;95.80
66610;DHT22;53468;48.276;14.416;2022-08-11T21:23:47;17.70;97.90
66610;DHT22;53468;48.276;14.416;2022-08-11T21:29:41;17.50;98.60
66610;DHT22;53468;48.276;14.416;2022-08-11T21:35:32;17.30;99.90
66610;DHT22;53468;48.276;14.416;2022-08-11T21:41:22;17.20;99.90
66610;DHT22;53468;48.276;14.416;2022-08-11T21:47:13;17.20;99.90
66610;DHT22;53468;48.276;14.416;2022-08-11T21:53:05;17.00;99.90
66610;DHT22;53468;48.276;14.416;2022-08-11T21:58:56;17.00;99.90
66610;DHT22;53468;48.276;14.416;2022-08-11T22:04:46;16.90;99.90
66610;DHT22;53468;48.276;14.416;2022-08-11T22:10:41;16.70;99.90
66610;DHT22;53468;48.276;14.416;2022-08-11T22:16:32;16.80;99.90
66610;DHT22;53468;48.276;14.416;2022-08-11T22:22:22;16.80;99.90
66610;DHT22;53468;48.276;14.416;2022-08-11T22:28:14;16.90;99.90
66610;DHT22;53468;48.276;14.416;2022-08-11T22:34:03;16.80;99.90
66610;DHT22;53468;48.276;14.416;2022-08-11T22:39:54;16.80;99.90
66610;DHT22;53468;48.276;14.416;2022-08-11T22:45:45;16.80;99.90
66610;DHT22;53468;48.276;14.416;2022-08-11T22:51:35;16.90;99.90
66610;DHT22;53468;48.276;14.416;2022-08-11T22:57:25;17.00;99.90
66610;DHT22;53468;48.276;14.416;2022-08-11T23:03:17;16.80;99.90
66610;DHT22;53468;48.276;14.416;2022-08-11T23:09:08;16.90;99.90
66610;DHT22;53468;48.276;14.416;2022-08-11T23:14:57;17.00;99.90
66610;DHT22;53468;48.276;14.416;2022-08-11T23:20:49;17.10;99.90
66610;DHT22;53468;48.276;14.416;2022-08-11T23:26:39;17.10;99.90
66610;DHT22;53468;48.276;14.416;2022-08-11T23:32:30;17.10;99.90
66610;DHT22;53468;48.276;14.416;2022-08-11T23:38:22;17.00;99.90
66610;DHT22;53468;48.276;14.416;2022-08-11T23:44:11;16.90;99.90
66610;DHT22;53468;48.276;14.416;2022-08-11T23:50:02;16.90;99.90
66610;DHT22;53468;48.276;14.416;2022-08-11T23:55:53;16.70;99.90
